Shorewood Hills, Wisconsin
Current Conditions -  °F | °C
As of 11:55 AM on Friday 24 Oct 2014 (Local Time) from KC29 Reporting Station
Overcast Overcast  
Wind Chill: 53°   Ceiling: 300
Heat Index: 53°   Visibility: 10mi
Dew Point: 53°   Wind: 7mph
Humidity: 100%   Direction: 230°SW
Pressure: 30.03"   Gusts: NA
Location:  43.0738°N, 89.4589°W
Report Text: KC29 241655Z AUTO 23006KT 10SM OVC003 12/12 A3003 RMK AO1 T01170117
Loading
Personal Weather Stations






























Interactive Weather Map
Tropical Storm Tracking
New forecast layout! Learn more

10-Day Weather Forecast

Advertisements
Track Severe Weather on mobile